createdAt,value
2023-04-12T00:02:22.654Z,19.17
2023-04-12T00:04:55.806Z,20.65
2023-04-12T00:07:24.418Z,19.13
2023-04-12T00:09:51.788Z,18.00
2023-04-12T00:12:19.653Z,18.83
2023-04-12T00:14:47.502Z,18.73
2023-04-12T00:17:14.775Z,18.10
2023-04-12T00:19:45.139Z,18.50
2023-04-12T00:22:12.879Z,18.40
2023-04-12T00:24:40.909Z,19.92
2023-04-12T00:27:08.235Z,18.83
2023-04-12T00:29:35.314Z,18.60
2023-04-12T00:32:05.991Z,19.90
2023-04-12T00:34:32.933Z,19.10
2023-04-12T00:37:01.466Z,18.40
2023-04-12T00:39:28.106Z,18.58
2023-04-12T00:41:57.428Z,19.63
2023-04-12T00:44:24.521Z,19.83
2023-04-12T00:46:51.828Z,20.02
2023-04-12T00:49:21.512Z,20.45
2023-04-12T00:51:48.521Z,21.05
2023-04-12T00:54:18.409Z,21.20
2023-04-12T00:56:47.480Z,21.80
2023-04-12T00:59:14.666Z,20.02
2023-04-12T01:01:41.992Z,20.88
2023-04-12T01:04:09.628Z,21.20
2023-04-12T01:06:56.537Z,19.15
2023-04-12T01:09:48.988Z,18.65
2023-04-12T01:13:12.837Z,19.92
2023-04-12T01:15:51.758Z,18.75
2023-04-12T01:18:23.947Z,18.88
2023-04-12T01:21:02.511Z,19.58
2023-04-12T01:23:54.218Z,19.27
2023-04-12T01:26:41.469Z,19.98
2023-04-12T01:29:11.413Z,18.13
2023-04-12T01:31:41.889Z,18.23
2023-04-12T01:34:17.100Z,19.60
2023-04-12T01:39:17.958Z,17.95
2023-04-12T01:41:49.231Z,18.52
2023-04-12T01:44:18.879Z,18.10
2023-04-12T01:46:52.564Z,17.58
2023-04-12T01:49:21.179Z,17.83
2023-04-12T01:52:03.286Z,18.80
2023-04-12T01:54:37.066Z,18.98
2023-04-12T01:57:05.263Z,18.80
2023-04-12T01:59:45.163Z,20.05
2023-04-12T02:02:14.766Z,21.50
2023-04-12T02:04:43.220Z,20.13
2023-04-12T02:07:10.127Z,20.67
2023-04-12T02:09:41.775Z,22.27
2023-04-12T02:12:09.451Z,20.33
2023-04-12T02:14:37.013Z,21.40
2023-04-12T02:17:04.997Z,21.30
2023-04-12T02:19:36.498Z,21.55
2023-04-12T02:22:04.748Z,19.98
2023-04-12T02:24:32.326Z,19.48
2023-04-12T02:26:59.582Z,20.00
2023-04-12T02:29:27.391Z,20.10
2023-04-12T02:31:54.769Z,20.20
2023-04-12T02:34:22.681Z,18.42
2023-04-12T02:36:51.605Z,17.38
2023-04-12T02:39:19.323Z,18.77
2023-04-12T02:41:48.560Z,18.85
2023-04-12T02:44:15.825Z,18.95
2023-04-12T02:46:47.128Z,18.40
2023-04-12T02:49:14.168Z,19.77
2023-04-12T02:51:41.874Z,19.00
2023-04-12T02:54:13.632Z,18.65
2023-04-12T02:56:40.864Z,18.88
2023-04-12T02:59:07.704Z,19.02
2023-04-12T03:01:35.940Z,18.08
2023-04-12T03:04:05.662Z,19.08
2023-04-12T03:06:35.376Z,17.92
2023-04-12T03:09:02.488Z,17.80
2023-04-12T03:11:29.613Z,19.23
2023-04-12T03:13:56.866Z,19.08
2023-04-12T03:16:32.726Z,18.90
2023-04-12T03:18:59.651Z,19.17
2023-04-12T03:21:28.466Z,20.48
2023-04-12T03:23:56.130Z,20.15
2023-04-12T03:26:23.198Z,19.00
2023-04-12T03:28:50.290Z,19.40
2023-04-12T03:31:21.175Z,20.50
2023-04-12T03:33:48.187Z,20.88
2023-04-12T03:36:15.220Z,22.10
2023-04-12T03:38:42.175Z,20.40
2023-04-12T03:41:09.180Z,21.42
2023-04-12T03:43:36.253Z,21.98
2023-04-12T03:46:04.500Z,21.15
2023-04-12T03:48:31.704Z,22.13
2023-04-12T03:50:59.919Z,20.80
2023-04-12T03:53:33.153Z,21.77
2023-04-12T03:56:00.288Z,21.48
2023-04-12T03:58:27.224Z,20.58
2023-04-12T04:00:54.215Z,20.98
2023-04-12T04:03:23.084Z,21.73
2023-04-12T04:05:50.819Z,21.05
2023-04-12T04:08:17.713Z,22.40
2023-04-12T04:10:44.573Z,20.48
2023-04-12T04:13:11.442Z,20.10
2023-04-12T04:15:38.518Z,20.88
2023-04-12T04:18:05.791Z,20.33
2023-04-12T04:20:32.940Z,21.27
2023-04-12T04:22:59.752Z,21.30
2023-04-12T04:25:32.384Z,20.52
2023-04-12T04:27:59.870Z,17.80
2023-04-12T04:30:26.847Z,18.48
2023-04-12T04:32:53.730Z,18.08
2023-04-12T04:35:20.803Z,18.55
2023-04-12T04:37:47.781Z,19.17
2023-04-12T04:40:15.454Z,19.08
2023-04-12T04:42:43.333Z,17.40
2023-04-12T04:45:14.134Z,18.33
2023-04-12T04:47:41.418Z,17.65
2023-04-12T04:50:08.721Z,16.95
2023-04-12T04:52:37.840Z,17.67
2023-04-12T04:55:07.379Z,16.15
2023-04-12T04:57:35.731Z,16.63
2023-04-12T05:00:11.303Z,16.23
2023-04-12T05:02:40.194Z,15.50
2023-04-12T05:05:08.164Z,14.98
2023-04-12T05:07:34.991Z,15.63
2023-04-12T05:10:02.920Z,15.30
2023-04-12T05:12:29.810Z,15.18
2023-04-12T05:15:10.574Z,14.60
2023-04-12T05:17:38.865Z,13.68
2023-04-12T05:20:08.523Z,13.02
2023-04-12T05:22:35.805Z,14.32
2023-04-12T05:25:04.024Z,13.40
2023-04-12T05:27:31.195Z,13.75
2023-04-12T05:29:58.392Z,14.60
2023-04-12T05:32:26.419Z,13.40
2023-04-12T05:34:53.497Z,13.40
2023-04-12T05:37:21.211Z,14.13
2023-04-12T05:39:48.112Z,13.07
2023-04-12T05:42:14.817Z,13.48
2023-04-12T05:44:41.793Z,14.13
2023-04-12T05:47:08.768Z,14.18
2023-04-12T05:49:35.752Z,12.70
2023-04-12T05:52:04.245Z,13.48
2023-04-12T05:54:31.812Z,13.07
2023-04-12T05:56:58.711Z,13.43
2023-04-12T05:59:28.592Z,13.38
2023-04-12T06:01:56.439Z,12.90
2023-04-12T06:04:34.924Z,12.30
2023-04-12T06:07:13.717Z,11.52
2023-04-12T06:09:42.402Z,11.60
2023-04-12T06:12:09.315Z,12.43
2023-04-12T06:14:36.571Z,11.45
2023-04-12T06:17:03.694Z,12.25
2023-04-12T06:19:30.682Z,13.35
2023-04-12T06:21:57.625Z,11.27
2023-04-12T06:24:24.409Z,11.90
2023-04-12T06:26:51.500Z,12.13
2023-04-12T06:29:18.417Z,11.48
2023-04-12T06:31:45.706Z,12.25
2023-04-12T06:34:12.659Z,12.13
2023-04-12T06:36:41.737Z,10.90
2023-04-12T06:39:09.854Z,11.57
2023-04-12T06:41:37.141Z,13.43
2023-04-12T06:44:04.166Z,11.38
2023-04-12T06:46:31.592Z,11.23
2023-04-12T06:48:59.023Z,10.93
2023-04-12T06:51:26.678Z,11.45
2023-04-12T06:53:53.649Z,10.95
2023-04-12T06:56:20.622Z,10.43
2023-04-12T06:58:47.514Z,9.35
2023-04-12T07:01:14.801Z,9.10
2023-04-12T07:03:41.881Z,8.60
2023-04-12T07:06:21.869Z,8.27
2023-04-12T07:08:51.646Z,8.73
2023-04-12T07:11:21.889Z,8.63
2023-04-12T07:13:49.521Z,7.28
2023-04-12T07:16:16.962Z,8.35
2023-04-12T07:18:44.461Z,7.10
2023-04-12T07:21:14.758Z,6.63
2023-04-12T07:23:41.738Z,6.65
2023-04-12T07:26:08.689Z,6.13
2023-04-12T07:28:36.514Z,6.30
2023-04-12T07:31:09.919Z,6.65
2023-04-12T07:33:39.414Z,6.40
2023-04-12T07:36:08.167Z,7.13
2023-04-12T07:38:35.778Z,5.90
2023-04-12T07:41:02.781Z,6.20
2023-04-12T07:43:29.738Z,6.30
2023-04-12T07:45:56.606Z,6.25
2023-04-12T07:48:23.697Z,5.93
2023-04-12T07:50:50.763Z,6.03
2023-04-12T07:53:23.182Z,5.97
2023-04-12T07:55:50.804Z,5.78
2023-04-12T07:58:18.468Z,6.45
2023-04-12T08:00:47.000Z,6.13
2023-04-12T08:03:18.269Z,6.20
2023-04-12T08:05:46.026Z,6.40
2023-04-12T08:08:12.837Z,5.82
2023-04-12T08:10:40.555Z,5.82
2023-04-12T08:13:07.889Z,5.85
2023-04-12T08:15:34.937Z,6.30
2023-04-12T08:18:02.747Z,5.90
2023-04-12T08:20:29.857Z,6.03
2023-04-12T08:22:56.926Z,5.75
2023-04-12T08:25:24.632Z,5.55
2023-04-12T08:27:51.900Z,6.38
2023-04-12T08:30:20.175Z,5.90
2023-04-12T08:32:47.179Z,5.65
2023-04-12T08:35:15.185Z,5.90
2023-04-12T08:37:42.402Z,5.75
2023-04-12T08:40:09.635Z,6.10
2023-04-12T08:42:38.100Z,5.95
2023-04-12T08:45:10.059Z,5.65
2023-04-12T08:47:43.224Z,5.50
2023-04-12T08:50:16.796Z,5.22
2023-04-12T08:52:43.941Z,5.63
2023-04-12T08:55:13.075Z,5.50
2023-04-12T08:57:46.636Z,5.80
2023-04-12T09:00:14.913Z,5.18
2023-04-12T09:02:46.481Z,5.00
2023-04-12T09:05:14.621Z,5.10
2023-04-12T09:07:42.599Z,5.30
2023-04-12T09:10:09.761Z,4.93
2023-04-12T09:12:46.252Z,5.20
2023-04-12T09:15:15.827Z,5.88
2023-04-12T09:17:43.109Z,6.25
2023-04-12T09:20:13.152Z,5.30
2023-04-12T09:22:44.666Z,5.25
2023-04-12T09:25:12.583Z,5.28
2023-04-12T09:27:51.211Z,5.78
2023-04-12T09:30:19.892Z,5.95
2023-04-12T09:32:51.032Z,6.18
2023-04-12T09:35:18.801Z,6.22
2023-04-12T09:37:45.797Z,5.32
2023-04-12T09:40:13.036Z,4.95
2023-04-12T09:42:53.948Z,4.60
2023-04-12T09:45:24.147Z,5.55
2023-04-12T09:47:51.859Z,5.35
2023-04-12T09:50:24.169Z,4.63
2023-04-12T09:52:51.491Z,5.03
2023-04-12T09:55:18.849Z,5.03
2023-04-12T09:57:46.168Z,5.00
2023-04-12T10:00:19.612Z,5.20
2023-04-12T10:02:49.035Z,5.15
2023-04-12T10:05:19.858Z,5.75
2023-04-12T10:07:47.859Z,5.80
2023-04-12T10:10:20.010Z,5.25
2023-04-12T10:12:50.155Z,5.45
2023-04-12T10:15:18.293Z,5.55
2023-04-12T10:17:53.954Z,5.63
2023-04-12T10:20:24.695Z,5.40
2023-04-12T10:22:54.480Z,5.13
2023-04-12T10:25:24.044Z,5.90
2023-04-12T10:27:51.122Z,5.25
2023-04-12T10:30:31.955Z,5.88
2023-04-12T10:33:05.806Z,5.15
2023-04-12T10:35:48.649Z,5.40
2023-04-12T10:38:16.886Z,5.40
2023-04-12T10:41:15.632Z,5.13
2023-04-12T10:43:52.307Z,5.63
2023-04-12T10:46:41.034Z,5.70
2023-04-12T10:49:13.200Z,5.65
2023-04-12T10:52:01.162Z,6.03
2023-04-12T10:54:32.184Z,6.22
2023-04-12T10:56:59.203Z,6.43
2023-04-12T10:59:34.377Z,7.07
2023-04-12T11:02:10.817Z,6.00
2023-04-12T11:04:38.089Z,5.72
2023-04-12T11:07:12.294Z,5.93
2023-04-12T11:09:45.577Z,6.43
2023-04-12T11:12:15.238Z,5.60
2023-04-12T11:14:48.481Z,5.50
2023-04-12T11:17:16.328Z,6.05
2023-04-12T11:19:46.302Z,5.43
2023-04-12T11:22:15.077Z,5.65
2023-04-12T11:24:49.673Z,5.55
2023-04-12T11:27:17.524Z,5.80
2023-04-12T11:29:46.440Z,6.63
2023-04-12T11:32:14.666Z,5.57
2023-04-12T11:34:43.788Z,5.05
2023-04-12T11:37:11.360Z,4.68
2023-04-12T11:39:46.394Z,5.15
2023-04-12T11:42:17.827Z,5.22
2023-04-12T11:44:55.149Z,5.03
2023-04-12T11:47:26.116Z,5.20
2023-04-12T11:49:55.747Z,5.10
2023-04-12T11:52:31.609Z,4.85
2023-04-12T11:55:06.871Z,5.50
2023-04-12T11:57:34.850Z,4.65
2023-04-12T12:00:02.473Z,5.40
2023-04-12T12:02:38.769Z,5.03
2023-04-12T12:05:13.677Z,4.70
2023-04-12T12:07:41.194Z,5.10
2023-04-12T12:10:08.827Z,4.90
2023-04-12T12:12:35.787Z,5.38
2023-04-12T12:15:02.871Z,5.20
2023-04-12T12:17:30.043Z,5.68
2023-04-12T12:19:59.531Z,6.25
2023-04-12T12:22:26.884Z,5.47
2023-04-12T12:24:58.922Z,5.40
2023-04-12T12:27:35.844Z,4.85
2023-04-12T12:30:06.630Z,5.10
2023-04-12T12:32:35.909Z,5.45
2023-04-12T12:35:09.598Z,5.25
2023-04-12T12:37:37.056Z,5.35
2023-04-12T12:40:15.696Z,5.45
2023-04-12T12:42:55.290Z,5.20
2023-04-12T12:45:24.331Z,5.03
2023-04-12T12:48:04.840Z,5.97
2023-04-12T12:50:36.413Z,5.95
2023-04-12T12:53:05.900Z,5.70
2023-04-12T12:55:34.774Z,5.38
2023-04-12T12:58:08.154Z,5.90
2023-04-12T13:00:36.546Z,5.13
2023-04-12T13:03:04.094Z,5.75
2023-04-12T13:05:31.673Z,5.22
2023-04-12T13:07:58.686Z,5.47
2023-04-12T13:10:27.380Z,5.72
2023-04-12T13:12:54.325Z,5.35
2023-04-12T13:15:23.550Z,5.07
2023-04-12T13:17:55.954Z,5.10
2023-04-12T13:20:23.471Z,5.35
2023-04-12T13:22:54.091Z,5.68
2023-04-12T13:25:21.663Z,5.47
2023-04-12T13:27:49.963Z,5.93
2023-04-12T13:30:18.347Z,4.80
2023-04-12T13:32:45.750Z,5.53
2023-04-12T13:35:13.317Z,5.35
2023-04-12T13:37:40.294Z,5.43
2023-04-12T13:40:07.991Z,5.63
2023-04-12T13:42:35.016Z,5.10
2023-04-12T13:45:02.067Z,5.20
2023-04-12T13:47:29.060Z,5.30
2023-04-12T13:49:56.169Z,5.47
2023-04-12T13:52:23.296Z,6.03
2023-04-12T13:54:51.570Z,4.90
2023-04-12T13:57:18.537Z,4.90
2023-04-12T13:59:45.545Z,5.78
2023-04-12T14:02:14.357Z,5.82
2023-04-12T14:04:52.463Z,6.50
2023-04-12T14:07:20.658Z,5.80
2023-04-12T14:09:48.848Z,5.82
2023-04-12T14:12:16.208Z,5.63
2023-04-12T14:14:43.289Z,6.22
2023-04-12T14:17:10.180Z,6.25
2023-04-12T14:19:37.225Z,6.32
2023-04-12T14:22:04.039Z,6.80
2023-04-12T14:24:31.578Z,6.20
2023-04-12T14:27:00.961Z,6.95
2023-04-12T14:29:28.048Z,6.85
2023-04-12T14:31:54.956Z,6.47
2023-04-12T14:34:21.940Z,6.18
2023-04-12T14:36:48.667Z,6.57
2023-04-12T14:41:42.368Z,6.53
2023-04-12T14:44:09.226Z,6.57
2023-04-12T14:46:36.450Z,6.18
2023-04-12T14:49:03.430Z,7.05
2023-04-12T14:51:30.451Z,7.05
2023-04-12T14:53:58.025Z,6.72
2023-04-12T14:56:29.747Z,7.15
2023-04-12T14:58:57.638Z,6.93
2023-04-12T15:01:25.681Z,6.97
2023-04-12T15:03:53.731Z,7.38
2023-04-12T15:06:27.482Z,6.93
2023-04-12T15:08:54.634Z,7.07
2023-04-12T15:11:27.061Z,8.05
2023-04-12T15:13:54.960Z,7.22
2023-04-12T15:16:22.119Z,7.22
2023-04-12T15:18:51.226Z,7.45
2023-04-12T15:21:18.279Z,7.38
2023-04-12T15:23:45.228Z,7.35
2023-04-12T15:26:14.999Z,7.68
2023-04-12T15:28:42.790Z,8.13
2023-04-12T15:31:12.230Z,8.77
2023-04-12T15:33:39.075Z,8.50
2023-04-12T15:36:06.665Z,8.27
2023-04-12T15:38:41.516Z,9.27
2023-04-12T15:41:09.301Z,8.90
2023-04-12T15:43:36.493Z,8.35
2023-04-12T15:46:03.528Z,9.13
2023-04-12T15:48:30.911Z,9.10
2023-04-12T15:50:57.931Z,8.65
2023-04-12T15:53:27.415Z,9.30
2023-04-12T15:55:57.864Z,9.23
2023-04-12T15:58:27.098Z,9.52
2023-04-12T16:00:54.619Z,8.93
2023-04-12T16:03:26.596Z,9.68
2023-04-12T16:05:54.239Z,9.95
2023-04-12T16:08:22.513Z,9.18
2023-04-12T16:10:50.963Z,9.68
2023-04-12T16:13:18.856Z,9.50
2023-04-12T16:15:46.575Z,9.82
2023-04-12T16:18:13.901Z,9.25
2023-04-12T16:20:41.240Z,10.30
2023-04-12T16:23:08.612Z,9.40
2023-04-12T16:25:36.403Z,10.25
2023-04-12T16:28:03.776Z,8.75
2023-04-12T16:30:34.317Z,9.45
2023-04-12T16:33:01.621Z,10.25
2023-04-12T16:35:28.693Z,11.10
2023-04-12T16:37:55.718Z,9.57
2023-04-12T16:40:24.667Z,9.85
2023-04-12T16:42:51.830Z,9.82
2023-04-12T16:45:19.881Z,10.45
2023-04-12T16:47:47.262Z,10.48
2023-04-12T16:50:14.535Z,10.45
2023-04-12T16:52:42.042Z,10.05
2023-04-12T16:55:12.622Z,9.40
2023-04-12T16:57:45.051Z,9.00
2023-04-12T17:00:20.691Z,9.25
2023-04-12T17:02:49.681Z,9.48
2023-04-12T17:05:18.276Z,8.63
2023-04-12T17:07:48.109Z,9.50
2023-04-12T17:10:20.174Z,9.32
2023-04-12T17:12:48.884Z,9.93
2023-04-12T17:15:18.110Z,9.65
2023-04-12T17:17:50.666Z,9.23
2023-04-12T17:20:19.422Z,10.05
2023-04-12T17:22:47.501Z,10.73
2023-04-12T17:25:14.785Z,10.10
2023-04-12T17:27:42.124Z,10.50
2023-04-12T17:30:11.893Z,10.77
2023-04-12T17:32:40.509Z,11.10
2023-04-12T17:35:08.110Z,10.52
2023-04-12T17:37:35.566Z,10.65
2023-04-12T17:40:04.283Z,10.68
2023-04-12T17:42:31.512Z,11.05
2023-04-12T17:44:58.339Z,10.20
2023-04-12T17:47:25.032Z,10.90
2023-04-12T17:49:52.402Z,11.25
2023-04-12T17:52:19.233Z,12.05
2023-04-12T17:54:46.217Z,11.73
2023-04-12T17:57:13.579Z,11.70
2023-04-12T17:59:40.510Z,11.35
2023-04-12T18:02:07.570Z,12.57
2023-04-12T18:04:34.849Z,12.45
2023-04-12T18:07:02.343Z,13.02
2023-04-12T18:09:29.278Z,12.30
2023-04-12T18:11:57.600Z,11.98
2023-04-12T18:14:25.513Z,11.85
2023-04-12T18:16:52.512Z,11.63
2023-04-12T18:19:19.577Z,11.70
2023-04-12T18:21:49.624Z,13.93
2023-04-12T18:24:17.091Z,11.73
2023-04-12T18:26:45.322Z,11.40
2023-04-12T18:29:14.562Z,11.40
2023-04-12T18:31:42.196Z,12.88
2023-04-12T18:34:09.205Z,13.38
2023-04-12T18:36:39.638Z,11.95
2023-04-12T18:39:08.168Z,12.50
2023-04-12T18:41:35.021Z,12.90
2023-04-12T18:44:01.966Z,12.23
2023-04-12T18:46:31.752Z,12.75
2023-04-12T18:48:59.224Z,13.93
2023-04-12T18:51:26.585Z,13.40
2023-04-12T18:53:53.544Z,12.85
2023-04-12T18:56:24.661Z,12.18
2023-04-12T18:58:55.451Z,14.43
2023-04-12T19:01:23.556Z,13.05
2023-04-12T19:03:51.170Z,13.15
2023-04-12T19:06:18.467Z,15.68
2023-04-12T19:08:45.881Z,13.18
2023-04-12T19:11:12.797Z,12.40
2023-04-12T19:13:39.778Z,12.95
2023-04-12T19:16:09.682Z,12.52
2023-04-12T19:18:36.584Z,11.30
2023-04-12T19:21:04.888Z,12.55
2023-04-12T19:23:32.576Z,12.55
2023-04-12T19:26:00.413Z,12.55
2023-04-12T19:28:28.281Z,12.68
2023-04-12T19:30:57.944Z,12.25
2023-04-12T19:33:25.537Z,12.70
2023-04-12T19:35:55.964Z,15.40
2023-04-12T19:38:22.733Z,12.73
2023-04-12T19:40:51.353Z,13.60
2023-04-12T19:43:21.196Z,12.60
2023-04-12T19:45:48.529Z,12.93
2023-04-12T19:48:18.965Z,13.13
2023-04-12T19:50:58.003Z,12.48
2023-04-12T19:53:25.045Z,12.48
2023-04-12T19:55:57.544Z,12.63
2023-04-12T19:58:25.409Z,12.80
2023-04-12T20:00:54.923Z,12.77
2023-04-12T20:03:30.700Z,13.32
2023-04-12T20:06:06.394Z,13.10
2023-04-12T20:08:33.876Z,12.55
2023-04-12T20:11:02.658Z,13.57
2023-04-12T20:13:31.023Z,14.07
2023-04-12T20:16:06.054Z,13.50
2023-04-12T20:18:35.004Z,13.98
2023-04-12T20:21:02.601Z,13.65
2023-04-12T20:23:36.607Z,13.82
2023-04-12T20:26:06.141Z,13.98
2023-04-12T20:28:42.025Z,14.13
2023-04-12T20:31:16.152Z,13.50
2023-04-12T20:33:46.323Z,13.57
2023-04-12T20:36:14.270Z,14.13
2023-04-12T20:38:41.362Z,13.88
2023-04-12T20:41:10.069Z,14.10
2023-04-12T20:43:46.517Z,13.23
2023-04-12T20:46:19.501Z,12.77
2023-04-12T20:48:48.336Z,12.93
2023-04-12T20:51:16.196Z,13.13
2023-04-12T20:53:51.394Z,12.85
2023-04-12T20:56:19.030Z,12.98
2023-04-12T20:58:47.597Z,13.32
2023-04-12T21:01:15.299Z,12.88
2023-04-12T21:03:43.553Z,13.50
2023-04-12T21:06:11.412Z,13.57
2023-04-12T21:08:39.198Z,13.60
2023-04-12T21:11:06.569Z,13.38
2023-04-12T21:13:34.750Z,13.73
2023-04-12T21:16:02.876Z,13.68
2023-04-12T21:18:32.447Z,13.98
2023-04-12T21:21:00.186Z,13.10
2023-04-12T21:23:28.336Z,14.43
2023-04-12T21:25:55.452Z,13.70
2023-04-12T21:28:23.075Z,13.88
2023-04-12T21:30:55.189Z,13.07
2023-04-12T21:33:26.450Z,12.70
2023-04-12T21:35:56.715Z,12.50
2023-04-12T21:38:24.228Z,12.85
2023-04-12T21:40:51.756Z,14.73
2023-04-12T21:43:18.887Z,13.05
2023-04-12T21:45:46.881Z,12.15
2023-04-12T21:48:14.806Z,13.05
2023-04-12T21:50:42.203Z,13.27
2023-04-12T21:53:09.409Z,13.70
2023-04-12T21:55:36.571Z,14.13
2023-04-12T21:58:04.083Z,13.70
2023-04-12T22:00:33.725Z,12.23
2023-04-12T22:03:01.164Z,13.77
2023-04-12T22:05:28.965Z,12.55
2023-04-12T22:07:55.973Z,12.32
2023-04-12T22:10:23.042Z,12.00
2023-04-12T22:12:54.090Z,12.35
2023-04-12T22:15:21.205Z,13.27
2023-04-12T22:17:48.647Z,12.70
2023-04-12T22:20:15.774Z,12.23
2023-04-12T22:22:43.110Z,12.80
2023-04-12T22:25:12.354Z,12.25
2023-04-12T22:27:39.685Z,11.82
2023-04-12T22:30:08.912Z,11.95
2023-04-12T22:32:36.032Z,12.02
2023-04-12T22:35:08.188Z,12.77
2023-04-12T22:37:39.213Z,12.52
2023-04-12T22:40:11.764Z,13.18
2023-04-12T22:42:46.572Z,11.75
2023-04-12T22:47:44.675Z,12.00
2023-04-12T22:50:13.156Z,12.25
2023-04-12T22:52:40.658Z,11.43
2023-04-12T22:55:14.785Z,11.30
2023-04-12T22:57:42.227Z,12.20
2023-04-12T23:00:14.941Z,11.13
2023-04-12T23:02:44.210Z,10.97
2023-04-12T23:05:12.320Z,11.90
2023-04-12T23:07:41.657Z,12.32
2023-04-12T23:10:11.538Z,12.55
2023-04-12T23:12:39.181Z,13.10
2023-04-12T23:15:06.722Z,11.75
2023-04-12T23:17:34.164Z,12.23
2023-04-12T23:20:04.087Z,11.40
2023-04-12T23:22:55.269Z,10.88
2023-04-12T23:25:40.061Z,11.45
2023-04-12T23:28:15.373Z,10.88
2023-04-12T23:30:50.206Z,10.77
2023-04-12T23:33:19.399Z,11.18
2023-04-12T23:35:49.614Z,10.10
2023-04-12T23:38:23.461Z,10.85
2023-04-12T23:40:54.348Z,10.57
2023-04-12T23:43:28.498Z,10.18
2023-04-12T23:45:58.822Z,10.10
2023-04-12T23:48:35.603Z,10.25
2023-04-12T23:51:02.579Z,10.93
2023-04-12T23:53:29.678Z,10.85
2023-04-12T23:55:56.796Z,11.55
2023-04-12T23:58:25.713Z,11.40
